KPMH/PMH METAR and TAF weather

Enter ICAO airport designator
Station Type Date Time Source
KPMH METAR 2022/08/16 18:55 UTC NOAA

KPMH 161855Z AUTO 00000KT 10SM SCT034 SCT046 BKN080 26/16 A3000 RMK AO2 T02600156


Station Type Date Time Source
KPMH Decoded METAR 2022/08/16 18:55 UTC NOAA

Station name not available
Aug 16, 2022 - 02:55 PM EDT / 2022.08.16 1855 UTC
Wind: Calm:0
Visibility: 10 mile(s):0
Sky conditions: mostly cloudy
Temperature: 78.8 F (26.0 C)
Dew Point: 60.1 F (15.6 C)
Relative Humidity: 52%
Pressure (altimeter): 30 in. Hg (1015 hPa)
ob: KPMH 161855Z AUTO 00000KT 10SM SCT034 SCT046 BKN080 26/16 A3000 RMK AO2 T02600156
cycle: 19

Station Type Date Time Source
KPMH TAF UTC NOAA

Error!

Example: see airport list